Time;durP1;ratioP1;P1;durP2;ratioP2;P2;SDS_P1;SDS_P2;PMS_P1;PMS_P2;Temp;Humidity;BMP_temperature;BMP_pressure;BME280_temperature;BME280_humidity;BME280_pressure;Samples;Min_cycle;Max_cycle;Signal;HPM_P1;HPM_P2
2022/09/22 00:01:11;;;;;;;7.35;3.10;;;;;;;;;;4998429;28;20030;-85
2022/09/22 00:03:42;;;;;;;9.88;3.08;;;;;;;;;;4985709;28;20061;-84
2022/09/22 00:06:08;;;;;;;8.35;3.05;;;;;;;;;;5005208;28;20088;-84
2022/09/22 00:08:35;;;;;;;10.48;2.83;;;;;;;;;;4990072;28;20030;-84
2022/09/22 00:11:07;;;;;;;8.48;2.92;;;;;;;;;;5004812;28;20057;-84
2022/09/22 00:13:34;;;;;;;8.30;3.03;;;;;;;;;;4989774;28;20050;-84
2022/09/22 00:16:00;;;;;;;8.60;3.05;;;;;;;;;;5008216;28;20052;-83
2022/09/22 00:18:27;;;;;;;9.52;2.75;;;;;;;;;;4997860;28;20050;-83
2022/09/22 00:20:53;;;;;;;6.82;2.40;;;;;;;;;;4999460;28;20038;-83
2022/09/22 00:23:19;;;;;;;8.55;2.58;;;;;;;;;;5000033;28;20034;-83
2022/09/22 00:25:45;;;;;;;7.95;2.83;;;;;;;;;;4984580;28;20049;-84
2022/09/22 00:28:12;;;;;;;9.23;2.40;;;;;;;;;;4990339;28;20747;-84
2022/09/22 00:30:41;;;;;;;7.88;2.40;;;;;;;;;;5012480;28;20402;-84
2022/09/22 00:33:08;;;;;;;7.25;2.70;;;;;;;;;;5006496;28;20041;-83
2022/09/22 00:35:36;;;;;;;7.45;2.47;;;;;;;;;;4985169;28;20718;-83
2022/09/22 00:38:04;;;;;;;9.38;2.97;;;;;;;;;;5002723;28;20034;-84
2022/09/22 00:40:30;;;;;;;7.07;2.45;;;;;;;;;;5001384;28;20032;-84
2022/09/22 00:43:11;;;;;;;7.15;2.65;;;;;;;;;;5012241;28;20124;-84
2022/09/22 00:45:37;;;;;;;6.63;2.20;;;;;;;;;;5011984;28;20084;-84
2022/09/22 00:48:03;;;;;;;6.03;1.98;;;;;;;;;;5012047;28;20125;-84
2022/09/22 00:50:29;;;;;;;8.75;2.53;;;;;;;;;;4993137;28;20483;-83
2022/09/22 00:52:58;;;;;;;6.28;2.25;;;;;;;;;;5001256;28;20117;-83
2022/09/22 00:55:24;;;;;;;7.72;2.45;;;;;;;;;;5004621;28;20073;-83
2022/09/22 00:57:51;;;;;;;10.05;2.47;;;;;;;;;;4991148;28;20177;-83
2022/09/22 01:00:17;;;;;;;7.85;2.40;;;;;;;;;;5002738;28;20057;-83
2022/09/22 01:02:48;;;;;;;8.20;2.45;;;;;;;;;;5011064;28;20029;-84
2022/09/22 01:05:14;;;;;;;7.40;2.15;;;;;;;;;;5015448;28;20063;-83
2022/09/22 01:07:41;;;;;;;5.75;2.08;;;;;;;;;;4994880;28;20104;-84
2022/09/22 01:10:07;;;;;;;8.60;3.63;;;;;;;;;;5004600;28;20791;-83
2022/09/22 01:12:35;;;;;;;11.05;2.40;;;;;;;;;;5000051;28;20077;-84
2022/09/22 01:15:01;;;;;;;9.05;2.40;;;;;;;;;;4997498;28;20045;-83
2022/09/22 01:17:33;;;;;;;8.07;2.53;;;;;;;;;;4988798;28;20057;-83
2022/09/22 01:20:11;;;;;;;7.55;2.35;;;;;;;;;;4999073;28;20040;-83
2022/09/22 01:22:47;;;;;;;6.45;2.28;;;;;;;;;;5004892;28;20049;-83
2022/09/22 01:25:25;;;;;;;10.07;2.30;;;;;;;;;;4998372;28;20383;-83
2022/09/22 01:28:10;;;;;;;5.57;2.20;;;;;;;;;;4989915;28;20054;-83
2022/09/22 01:30:57;;;;;;;6.65;2.55;;;;;;;;;;5007349;28;20820;-83
2022/09/22 01:33:38;;;;;;;7.43;2.22;;;;;;;;;;5007638;28;20542;-83
2022/09/22 01:36:23;;;;;;;7.28;2.13;;;;;;;;;;5002913;28;20481;-83
2022/09/22 01:38:57;;;;;;;11.15;3.75;;;;;;;;;;4989181;28;20084;-83
2022/09/22 01:41:35;;;;;;;5.93;2.40;;;;;;;;;;5003104;28;20519;-83
2022/09/22 01:44:04;;;;;;;8.25;2.95;;;;;;;;;;4994425;28;20029;-83
2022/09/22 01:46:33;;;;;;;7.75;1.83;;;;;;;;;;5023115;23;20160;-83
2022/09/22 01:49:00;;;;;;;7.82;2.15;;;;;;;;;;5029244;28;20033;-83
2022/09/22 01:51:32;;;;;;;6.20;2.42;;;;;;;;;;5026337;28;20042;-84
2022/09/22 01:54:04;;;;;;;8.15;2.50;;;;;;;;;;5036959;28;20855;-83
2022/09/22 01:56:32;;;;;;;5.82;2.38;;;;;;;;;;5025784;28;20063;-83
2022/09/22 01:59:00;;;;;;;9.15;3.00;;;;;;;;;;5014631;28;20119;-83
2022/09/22 02:01:28;;;;;;;9.02;3.03;;;;;;;;;;5021279;28;20077;-83
2022/09/22 02:04:09;;;;;;;6.75;2.35;;;;;;;;;;5029842;28;20139;-83
2022/09/22 02:06:53;;;;;;;9.13;3.10;;;;;;;;;;5034531;28;20131;-83
2022/09/22 02:09:21;;;;;;;7.00;2.85;;;;;;;;;;5035052;28;20046;-83
2022/09/22 02:11:47;;;;;;;7.78;2.40;;;;;;;;;;5028421;28;20334;-83
2022/09/22 02:14:14;;;;;;;10.07;2.80;;;;;;;;;;5030708;28;20138;-82
2022/09/22 02:16:40;;;;;;;7.13;2.60;;;;;;;;;;5027964;28;20074;-83
2022/09/22 02:19:07;;;;;;;7.43;2.83;;;;;;;;;;5030510;28;20040;-82
2022/09/22 02:21:33;;;;;;;6.80;2.25;;;;;;;;;;5025866;28;20033;-83
2022/09/22 02:23:59;;;;;;;8.35;2.30;;;;;;;;;;5025371;28;20584;-82
2022/09/22 02:26:28;;;;;;;7.18;2.40;;;;;;;;;;5030083;28;20854;-82
2022/09/22 02:28:57;;;;;;;8.25;2.70;;;;;;;;;;5027761;28;20029;-82
2022/09/22 02:31:24;;;;;;;9.18;2.80;;;;;;;;;;5027667;28;20069;-83
2022/09/22 02:33:50;;;;;;;8.23;3.35;;;;;;;;;;5021971;28;20088;-83
2022/09/22 02:36:36;;;;;;;9.68;3.13;;;;;;;;;;5020253;28;20121;-83
2022/09/22 02:39:02;;;;;;;8.40;2.95;;;;;;;;;;5032184;28;20034;-82
2022/09/22 02:41:48;;;;;;;6.68;2.60;;;;;;;;;;5034014;28;20033;-82
2022/09/22 02:44:17;;;;;;;10.40;3.72;;;;;;;;;;5007548;28;20455;-82
2022/09/22 02:46:46;;;;;;;7.97;2.55;;;;;;;;;;5025273;28;20049;-82
2022/09/22 02:49:15;;;;;;;10.23;3.58;;;;;;;;;;5017554;28;20034;-82
2022/09/22 02:51:41;;;;;;;8.13;3.22;;;;;;;;;;5035291;28;20719;-82
2022/09/22 02:54:07;;;;;;;9.10;2.55;;;;;;;;;;5037578;28;20083;-82
2022/09/22 02:56:33;;;;;;;7.07;2.30;;;;;;;;;;5038902;28;20086;-83
2022/09/22 02:58:59;;;;;;;8.70;3.10;;;;;;;;;;5032740;28;20040;-82
2022/09/22 03:01:26;;;;;;;9.02;3.30;;;;;;;;;;5011694;28;20034;-83
2022/09/22 03:03:52;;;;;;;9.27;2.67;;;;;;;;;;5013720;28;20467;-83
2022/09/22 03:06:18;;;;;;;8.32;3.20;;;;;;;;;;5030027;28;20116;-82
2022/09/22 03:08:44;;;;;;;8.82;3.15;;;;;;;;;;5027519;28;20033;-83
2022/09/22 03:11:10;;;;;;;8.70;2.80;;;;;;;;;;5025520;28;20458;-83
2022/09/22 03:13:36;;;;;;;6.30;2.80;;;;;;;;;;5027781;28;20071;-83
2022/09/22 03:16:02;;;;;;;7.22;2.65;;;;;;;;;;5027925;28;20087;-82
2022/09/22 03:18:28;;;;;;;7.90;2.92;;;;;;;;;;5023489;28;20033;-83
2022/09/22 03:20:54;;;;;;;9.40;3.47;;;;;;;;;;5027929;28;20030;-82
2022/09/22 03:23:20;;;;;;;10.02;3.00;;;;;;;;;;5033762;28;20036;-82
2022/09/22 03:25:46;;;;;;;12.50;3.10;;;;;;;;;;5029555;28;20025;-83
2022/09/22 03:28:12;;;;;;;8.95;3.00;;;;;;;;;;5032767;28;20061;-82
2022/09/22 03:30:39;;;;;;;11.18;3.28;;;;;;;;;;5028080;28;20367;-83
2022/09/22 03:33:05;;;;;;;7.35;3.38;;;;;;;;;;5019560;28;20037;-82
2022/09/22 03:35:31;;;;;;;9.13;3.60;;;;;;;;;;5028853;28;20029;-82
2022/09/22 03:37:57;;;;;;;10.93;3.55;;;;;;;;;;5025584;28;20107;-82
2022/09/22 03:40:23;;;;;;;8.07;2.95;;;;;;;;;;5036496;28;20072;-82
2022/09/22 03:42:49;;;;;;;9.73;3.85;;;;;;;;;;5010181;28;20459;-82
2022/09/22 03:45:16;;;;;;;9.02;3.22;;;;;;;;;;5029448;28;20030;-82
2022/09/22 03:47:42;;;;;;;7.60;2.80;;;;;;;;;;5029272;28;20096;-82
2022/09/22 03:50:08;;;;;;;8.93;3.25;;;;;;;;;;5032759;28;20779;-83
2022/09/22 03:52:34;;;;;;;7.97;3.33;;;;;;;;;;5028814;28;20367;-82
2022/09/22 03:55:01;;;;;;;8.32;3.08;;;;;;;;;;5029922;28;20033;-83
2022/09/22 03:57:27;;;;;;;14.48;5.93;;;;;;;;;;5017320;28;20048;-82
2022/09/22 03:59:53;;;;;;;8.98;3.90;;;;;;;;;;5018884;28;20029;-82
2022/09/22 04:02:19;;;;;;;10.32;3.00;;;;;;;;;;5020349;28;20053;-82
2022/09/22 04:04:46;;;;;;;8.65;3.17;;;;;;;;;;5022534;28;20402;-82
2022/09/22 04:07:11;;;;;;;7.10;3.53;;;;;;;;;;5033926;28;20663;-82
2022/09/22 04:09:38;;;;;;;8.43;3.08;;;;;;;;;;5036757;28;20124;-82
2022/09/22 04:12:05;;;;;;;9.60;3.30;;;;;;;;;;5029520;28;20156;-82
2022/09/22 04:14:31;;;;;;;9.00;3.22;;;;;;;;;;5026842;28;20045;-82
2022/09/22 04:16:57;;;;;;;9.30;3.45;;;;;;;;;;5024138;28;20037;-82
2022/09/22 04:19:23;;;;;;;10.07;3.45;;;;;;;;;;5026897;28;20036;-82
2022/09/22 04:21:49;;;;;;;9.50;4.15;;;;;;;;;;5032980;28;20136;-82
2022/09/22 04:24:16;;;;;;;10.05;3.88;;;;;;;;;;5032509;28;20104;-82
2022/09/22 04:26:42;;;;;;;10.18;3.83;;;;;;;;;;5034467;28;20033;-82
2022/09/22 04:29:08;;;;;;;8.75;3.40;;;;;;;;;;5037544;28;20029;-82
2022/09/22 04:31:34;;;;;;;10.60;3.28;;;;;;;;;;5030960;28;20579;-81
2022/09/22 04:34:00;;;;;;;8.57;3.47;;;;;;;;;;5025967;28;20025;-82
2022/09/22 04:36:26;;;;;;;9.35;3.03;;;;;;;;;;5031238;28;20037;-81
2022/09/22 04:38:52;;;;;;;12.73;3.63;;;;;;;;;;5032583;28;20044;-82
2022/09/22 04:41:18;;;;;;;9.43;3.45;;;;;;;;;;5022548;28;20359;-81
2022/09/22 04:43:44;;;;;;;11.48;3.60;;;;;;;;;;5049962;28;20067;-81
2022/09/22 04:46:10;;;;;;;10.57;4.28;;;;;;;;;;5028726;28;20547;-81
2022/09/22 04:48:36;;;;;;;9.18;3.97;;;;;;;;;;5031715;28;20025;-81
2022/09/22 04:51:02;;;;;;;15.32;4.78;;;;;;;;;;5024916;28;20554;-82
2022/09/22 04:53:28;;;;;;;14.60;4.22;;;;;;;;;;5032557;28;20033;-81
2022/09/22 04:55:55;;;;;;;14.00;3.63;;;;;;;;;;5030723;28;20044;-82
2022/09/22 04:58:21;;;;;;;14.60;3.75;;;;;;;;;;5029306;28;20026;-82
2022/09/22 05:00:47;;;;;;;11.98;3.60;;;;;;;;;;5024816;28;20037;-82
2022/09/22 05:03:13;;;;;;;10.23;3.65;;;;;;;;;;5029667;28;20026;-82
2022/09/22 05:05:39;;;;;;;10.05;3.55;;;;;;;;;;5022200;28;20562;-82
2022/09/22 05:08:06;;;;;;;9.13;3.15;;;;;;;;;;5022764;28;20034;-82
2022/09/22 05:10:35;;;;;;;13.68;3.85;;;;;;;;;;5048904;28;20495;-81
2022/09/22 05:13:01;;;;;;;10.10;3.72;;;;;;;;;;5031317;28;20064;-82
2022/09/22 05:15:31;;;;;;;9.27;3.70;;;;;;;;;;5019480;28;20052;-81
2022/09/22 05:17:57;;;;;;;12.13;3.50;;;;;;;;;;5026919;28;20039;-82
2022/09/22 05:20:23;;;;;;;10.98;3.30;;;;;;;;;;5031697;28;20021;-81
2022/09/22 05:22:49;;;;;;;8.48;3.35;;;;;;;;;;5021926;28;20484;-81
2022/09/22 05:25:16;;;;;;;10.98;3.00;;;;;;;;;;5030812;28;20063;-82
2022/09/22 05:27:44;;;;;;;12.32;3.22;;;;;;;;;;5029736;28;20124;-82
2022/09/22 05:30:10;;;;;;;11.73;3.53;;;;;;;;;;5032557;28;20024;-82
2022/09/22 05:32:36;;;;;;;18.45;3.63;;;;;;;;;;5027164;28;20501;-82
2022/09/22 05:35:02;;;;;;;12.40;3.00;;;;;;;;;;5017877;28;20068;-82
2022/09/22 05:37:28;;;;;;;10.48;3.05;;;;;;;;;;5024462;28;20064;-82
2022/09/22 05:39:54;;;;;;;6.97;2.72;;;;;;;;;;5032093;28;20060;-82
2022/09/22 05:42:22;;;;;;;13.35;3.92;;;;;;;;;;5029745;28;20029;-82
2022/09/22 05:44:48;;;;;;;16.90;3.92;;;;;;;;;;5040010;28;20052;-82
2022/09/22 05:47:14;;;;;;;11.77;4.28;;;;;;;;;;5024619;28;20075;-82
2022/09/22 05:49:40;;;;;;;13.55;4.10;;;;;;;;;;5025248;28;20049;-82
2022/09/22 05:52:06;;;;;;;14.23;4.28;;;;;;;;;;5030362;28;20041;-82
2022/09/22 05:54:32;;;;;;;15.65;4.47;;;;;;;;;;5030722;28;20107;-82
2022/09/22 05:56:58;;;;;;;11.73;4.05;;;;;;;;;;5028067;28;20116;-82
2022/09/22 05:59:24;;;;;;;12.77;4.88;;;;;;;;;;5024433;28;20044;-82
2022/09/22 06:01:50;;;;;;;13.77;3.85;;;;;;;;;;5018541;28;20076;-82
2022/09/22 06:04:16;;;;;;;11.48;3.58;;;;;;;;;;5011281;28;20061;-82
2022/09/22 06:06:42;;;;;;;8.98;3.70;;;;;;;;;;5027943;28;20061;-82
2022/09/22 06:09:08;;;;;;;10.73;3.63;;;;;;;;;;5030599;28;20761;-82
2022/09/22 06:11:34;;;;;;;10.55;3.80;;;;;;;;;;5032250;28;20041;-81
2022/09/22 06:14:00;;;;;;;9.73;3.75;;;;;;;;;;5039231;28;20033;-82
2022/09/22 06:16:26;;;;;;;16.35;3.75;;;;;;;;;;5043807;28;20391;-82
2022/09/22 06:18:52;;;;;;;12.48;4.30;;;;;;;;;;5025428;28;20034;-82
2022/09/22 06:21:19;;;;;;;17.15;5.32;;;;;;;;;;5026893;28;20041;-81
2022/09/22 06:23:45;;;;;;;19.45;4.22;;;;;;;;;;5026407;28;20927;-81
2022/09/22 06:26:11;;;;;;;10.18;3.90;;;;;;;;;;5022664;28;20041;-82
2022/09/22 06:28:37;;;;;;;16.08;5.03;;;;;;;;;;5026277;28;20037;-82
2022/09/22 06:31:04;;;;;;;15.55;5.78;;;;;;;;;;5030507;28;20477;-82
2022/09/22 06:33:30;;;;;;;16.00;4.80;;;;;;;;;;5024110;28;20060;-82
2022/09/22 06:36:00;;;;;;;18.55;4.88;;;;;;;;;;5017006;28;20069;-82
2022/09/22 06:38:26;;;;;;;15.88;5.03;;;;;;;;;;5022415;28;20043;-82
2022/09/22 06:40:57;;;;;;;17.00;5.47;;;;;;;;;;5027953;28;20991;-82
2022/09/22 06:43:23;;;;;;;13.25;6.28;;;;;;;;;;5023284;28;20068;-82
2022/09/22 06:45:50;;;;;;;18.42;6.05;;;;;;;;;;5022829;28;20045;-82
2022/09/22 06:48:16;;;;;;;14.80;5.82;;;;;;;;;;5029669;28;20065;-82
2022/09/22 06:50:47;;;;;;;15.18;5.50;;;;;;;;;;5024085;28;20037;-82
2022/09/22 06:53:13;;;;;;;12.75;5.35;;;;;;;;;;5025850;28;20033;-82
2022/09/22 06:55:43;;;;;;;12.20;4.85;;;;;;;;;;5027265;28;20475;-82
2022/09/22 06:58:09;;;;;;;11.48;5.10;;;;;;;;;;5028304;28;20033;-82
2022/09/22 07:00:35;;;;;;;14.68;5.32;;;;;;;;;;5020069;28;20036;-82
2022/09/22 07:03:21;;;;;;;12.35;5.60;;;;;;;;;;5022202;28;20675;-83
2022/09/22 07:05:53;;;;;;;15.07;4.70;;;;;;;;;;5024055;28;20025;-82
2022/09/22 07:08:23;;;;;;;11.13;5.10;;;;;;;;;;5025853;28;20120;-82
2022/09/22 07:11:08;;;;;;;13.00;4.20;;;;;;;;;;5025541;28;20045;-82
2022/09/22 07:13:38;;;;;;;9.80;3.60;;;;;;;;;;5018677;28;20608;-82
2022/09/22 07:16:09;;;;;;;15.98;3.47;;;;;;;;;;5024324;28;20034;-82
2022/09/22 07:18:39;;;;;;;10.80;3.97;;;;;;;;;;5024520;28;20034;-82
2022/09/22 07:21:07;;;;;;;7.47;3.50;;;;;;;;;;5026966;28;20049;-83
2022/09/22 07:23:35;;;;;;;10.35;3.65;;;;;;;;;;5021063;28;20605;-83
2022/09/22 07:26:05;;;;;;;6.88;2.90;;;;;;;;;;5024628;28;20034;-83
2022/09/22 07:28:32;;;;;;;12.93;3.10;;;;;;;;;;5026872;28;20033;-84
2022/09/22 07:31:04;;;;;;;8.73;4.13;;;;;;;;;;5019198;28;20038;-84
2022/09/22 07:33:31;;;;;;;12.60;3.90;;;;;;;;;;5021450;28;20030;-84
2022/09/22 07:36:07;;;;;;;12.75;3.15;;;;;;;;;;5026542;28;20072;-84
2022/09/22 07:38:35;;;;;;;8.10;2.75;;;;;;;;;;5019979;28;20710;-84
2022/09/22 07:41:12;;;;;;;10.50;2.95;;;;;;;;;;5016457;28;20033;-84
2022/09/22 07:43:39;;;;;;;5.47;2.50;;;;;;;;;;5022117;28;20033;-83
2022/09/22 07:46:05;;;;;;;12.48;2.55;;;;;;;;;;5027376;28;20068;-83
2022/09/22 07:48:46;;;;;;;6.82;2.53;;;;;;;;;;5026790;28;20038;-84
2022/09/22 07:51:19;;;;;;;6.18;2.72;;;;;;;;;;5013014;28;20080;-84
2022/09/22 07:53:49;;;;;;;8.57;2.47;;;;;;;;;;5016426;28;20096;-84
2022/09/22 07:56:17;;;;;;;6.20;2.47;;;;;;;;;;5013937;28;20550;-84
2022/09/22 07:58:48;;;;;;;7.82;2.63;;;;;;;;;;5013691;28;20109;-84
2022/09/22 08:01:15;;;;;;;7.32;2.65;;;;;;;;;;5028324;28;20033;-84
2022/09/22 08:03:41;;;;;;;9.52;3.30;;;;;;;;;;5026260;28;20030;-84
2022/09/22 08:06:11;;;;;;;8.88;2.45;;;;;;;;;;5020613;28;20034;-85
2022/09/22 08:08:41;;;;;;;11.48;2.97;;;;;;;;;;5022418;28;20483;-84
2022/09/22 08:11:12;;;;;;;11.98;2.92;;;;;;;;;;5018996;28;20061;-85
2022/09/22 08:13:38;;;;;;;10.65;2.92;;;;;;;;;;5021661;28;20048;-85
2022/09/22 08:16:04;;;;;;;12.75;3.00;;;;;;;;;;5028029;28;20045;-84
2022/09/22 08:18:31;;;;;;;7.38;3.08;;;;;;;;;;5021801;28;20156;-84
2022/09/22 08:20:57;;;;;;;8.82;2.97;;;;;;;;;;5025466;28;20044;-84
2022/09/22 08:23:23;;;;;;;7.80;2.42;;;;;;;;;;5012606;28;20032;-85
2022/09/22 08:25:49;;;;;;;5.65;2.15;;;;;;;;;;5025938;28;20108;-84
2022/09/22 08:28:15;;;;;;;10.77;2.88;;;;;;;;;;5019916;28;20041;-85
2022/09/22 08:30:45;;;;;;;9.35;2.53;;;;;;;;;;5029697;28;20124;-85
2022/09/22 08:33:12;;;;;;;13.23;2.88;;;;;;;;;;5026177;28;20030;-86
2022/09/22 08:35:38;;;;;;;9.82;2.28;;;;;;;;;;5023750;28;20191;-86
2022/09/22 08:38:04;;;;;;;10.27;2.40;;;;;;;;;;5016975;28;20030;-85
2022/09/22 08:40:30;;;;;;;8.15;2.28;;;;;;;;;;5022474;28;20037;-86
2022/09/22 08:42:58;;;;;;;6.10;2.13;;;;;;;;;;5015935;28;20037;-85
2022/09/22 08:45:32;;;;;;;7.55;2.25;;;;;;;;;;5024316;28;20037;-85
2022/09/22 08:53:32;;;;;;;5.80;2.13;;;;;;;;;;5024185;28;20055;-85
2022/09/22 08:56:04;;;;;;;10.32;2.72;;;;;;;;;;5021940;28;20060;-85
2022/09/22 08:58:36;;;;;;;10.63;2.47;;;;;;;;;;5027833;28;20041;-85
2022/09/22 09:01:23;;;;;;;8.25;2.60;;;;;;;;;;5027153;28;20048;-85
2022/09/22 09:04:09;;;;;;;9.73;2.60;;;;;;;;;;5030415;28;20029;-85
2022/09/22 09:06:45;;;;;;;6.18;2.25;;;;;;;;;;5028884;28;20037;-85
2022/09/22 09:09:11;;;;;;;8.38;2.35;;;;;;;;;;5021959;28;20037;-84
2022/09/22 09:11:49;;;;;;;6.38;2.78;;;;;;;;;;5031137;28;20037;-85
2022/09/22 09:14:38;;;;;;;7.45;2.50;;;;;;;;;;5026082;28;20042;-84
2022/09/22 09:17:07;;;;;;;9.18;2.58;;;;;;;;;;4990631;28;20041;-84
2022/09/22 09:19:33;;;;;;;9.13;2.28;;;;;;;;;;5021300;28;20712;-85
2022/09/22 09:22:01;;;;;;;8.13;1.92;;;;;;;;;;5025698;28;20038;-85
2022/09/22 09:24:38;;;;;;;8.30;1.92;;;;;;;;;;5018576;28;20022;-84
2022/09/22 09:27:07;;;;;;;7.63;2.15;;;;;;;;;;5025661;28;20061;-83
2022/09/22 09:29:40;;;;;;;5.28;1.70;;;;;;;;;;5030880;28;20077;-84
2022/09/22 09:32:12;;;;;;;4.40;1.60;;;;;;;;;;5029686;28;20075;-84
2022/09/22 09:34:38;;;;;;;7.00;1.90;;;;;;;;;;5030244;28;22061;-84
2022/09/22 09:37:06;;;;;;;11.23;2.40;;;;;;;;;;5034031;28;20067;-84
2022/09/22 09:39:34;;;;;;;7.80;1.90;;;;;;;;;;5029414;28;20471;-84
2022/09/22 09:42:01;;;;;;;5.60;2.10;;;;;;;;;;5025750;28;20038;-84
2022/09/22 09:44:29;;;;;;;5.20;1.90;;;;;;;;;;5027815;28;20036;-84
2022/09/22 09:46:55;;;;;;;6.55;1.45;;;;;;;;;;5022033;28;20507;-84
2022/09/22 09:49:22;;;;;;;7.57;2.13;;;;;;;;;;5021076;28;20129;-85
2022/09/22 09:51:53;;;;;;;5.68;1.60;;;;;;;;;;5027634;28;20364;-84
2022/09/22 09:54:19;;;;;;;3.55;1.98;;;;;;;;;;5025723;28;20425;-84
2022/09/22 09:57:05;;;;;;;5.32;1.70;;;;;;;;;;5028159;28;20364;-84
2022/09/22 10:02:18;;;;;;;5.95;2.13;;;;;;;;;;5021877;28;20380;-84
2022/09/22 10:04:49;;;;;;;4.65;1.55;;;;;;;;;;5028641;28;20036;-84
2022/09/22 10:07:26;;;;;;;8.85;2.28;;;;;;;;;;5021713;28;20083;-84
2022/09/22 10:09:53;;;;;;;7.03;2.28;;;;;;;;;;5016681;28;20398;-84
2022/09/22 10:12:24;;;;;;;6.25;1.80;;;;;;;;;;5028055;28;20386;-84
2022/09/22 10:14:51;;;;;;;5.55;2.03;;;;;;;;;;5039635;28;20080;-84
2022/09/22 10:17:20;;;;;;;5.63;2.00;;;;;;;;;;5029336;28;20037;-84
2022/09/22 10:19:46;;;;;;;8.15;1.85;;;;;;;;;;5021534;28;20037;-84
2022/09/22 10:22:16;;;;;;;5.10;1.80;;;;;;;;;;5022558;28;20053;-84
2022/09/22 10:24:52;;;;;;;5.38;2.00;;;;;;;;;;5018346;28;20034;-84
2022/09/22 10:27:23;;;;;;;7.22;1.80;;;;;;;;;;5021491;28;20065;-84
2022/09/22 10:30:12;;;;;;;7.93;1.52;;;;;;;;;;5021128;28;20041;-83
2022/09/22 10:32:38;;;;;;;4.18;1.40;;;;;;;;;;5019108;28;20159;-84
2022/09/22 10:35:43;;;;;;;5.20;1.50;;;;;;;;;;5021848;28;20830;-83
2022/09/22 10:38:14;;;;;;;6.00;1.50;;;;;;;;;;4943618;29;20039;-83
2022/09/22 10:40:41;;;;;;;7.22;1.42;;;;;;;;;;4946717;29;20031;-84
2022/09/22 10:43:18;;;;;;;7.53;1.52;;;;;;;;;;4989996;28;20041;-84
2022/09/22 10:45:57;;;;;;;5.05;1.90;;;;;;;;;;5024132;28;20120;-84
2022/09/22 10:48:23;;;;;;;8.88;2.30;;;;;;;;;;5021115;28;20049;-84
2022/09/22 10:50:59;;;;;;;9.77;1.80;;;;;;;;;;5019009;28;20037;-84
2022/09/22 10:53:31;;;;;;;5.35;1.55;;;;;;;;;;5031067;28;20071;-84
2022/09/22 10:56:09;;;;;;;6.75;1.63;;;;;;;;;;5023725;28;20116;-84
2022/09/22 10:58:54;;;;;;;4.85;1.92;;;;;;;;;;5024690;28;20029;-83
2022/09/22 11:01:29;;;;;;;6.30;1.55;;;;;;;;;;5016926;28;20142;-84
2022/09/22 11:03:58;;;;;;;10.77;1.60;;;;;;;;;;5013120;28;20395;-84
2022/09/22 11:12:33;;;;;;;6.15;1.60;;;;;;;;;;5023977;28;20779;-85
2022/09/22 11:15:12;;;;;;;8.13;1.70;;;;;;;;;;5014753;28;20041;-84
2022/09/22 11:17:52;;;;;;;4.10;1.10;;;;;;;;;;5023354;28;20769;-85
2022/09/22 11:20:27;;;;;;;5.15;1.52;;;;;;;;;;5025128;28;20033;-85
2022/09/22 11:23:06;;;;;;;13.02;2.35;;;;;;;;;;5030216;28;20045;-86
2022/09/22 11:25:32;;;;;;;10.50;1.92;;;;;;;;;;5023420;28;20036;-85
2022/09/22 11:28:04;;;;;;;6.80;1.77;;;;;;;;;;5037059;28;20034;-86
2022/09/22 11:30:30;;;;;;;;;;;;;;;;;;5022100;28;20034;-85
2022/09/22 11:33:12;;;;;;;5.68;1.70;;;;;;;;;;5025352;28;19917;-85
2022/09/22 11:35:59;;;;;;;7.70;1.80;;;;;;;;;;5019824;28;20040;-85
2022/09/22 11:38:38;;;;;;;6.28;1.63;;;;;;;;;;5017119;28;20034;-86
2022/09/22 11:41:04;;;;;;;7.35;2.45;;;;;;;;;;5014250;28;20030;-85
2022/09/22 11:43:48;;;;;;;11.35;1.33;;;;;;;;;;5026914;28;20079;-86
2022/09/22 11:46:17;;;;;;;7.35;2.63;;;;;;;;;;5012612;28;20403;-85
2022/09/22 11:48:52;;;;;;;8.40;2.10;;;;;;;;;;5022544;28;20037;-85
2022/09/22 11:51:24;;;;;;;7.68;1.88;;;;;;;;;;5020149;28;20053;-84
2022/09/22 11:53:50;;;;;;;8.52;1.90;;;;;;;;;;5026302;28;20057;-85
2022/09/22 11:56:20;;;;;;;6.18;2.20;;;;;;;;;;5027523;28;20080;-85
2022/09/22 11:58:47;;;;;;;10.25;2.25;;;;;;;;;;5022453;28;20116;-85
2022/09/22 12:01:18;;;;;;;7.35;2.65;;;;;;;;;;5021432;28;20572;-85
2022/09/22 12:03:49;;;;;;;6.90;2.25;;;;;;;;;;5017192;28;20045;-85
2022/09/22 12:06:18;;;;;;;9.48;2.22;;;;;;;;;;5028362;28;20034;-85
2022/09/22 12:08:52;;;;;;;11.95;1.83;;;;;;;;;;5022406;28;20038;-85
2022/09/22 12:11:19;;;;;;;5.28;2.38;;;;;;;;;;5017267;28;20475;-85
2022/09/22 12:13:46;;;;;;;8.77;2.05;;;;;;;;;;5024248;28;20040;-84
2022/09/22 12:16:17;;;;;;;7.47;1.90;;;;;;;;;;5027909;28;20042;-84
2022/09/22 12:19:01;;;;;;;6.00;1.60;;;;;;;;;;5025194;28;20040;-84
2022/09/22 12:21:39;;;;;;;16.92;2.47;;;;;;;;;;5028396;28;20100;-84
2022/09/22 12:24:10;;;;;;;4.47;1.60;;;;;;;;;;5022389;28;20041;-84
2022/09/22 12:26:46;;;;;;;7.55;1.77;;;;;;;;;;5034674;28;20043;-84
2022/09/22 12:29:15;;;;;;;8.23;1.63;;;;;;;;;;5028336;28;20034;-84
2022/09/22 12:31:42;;;;;;;8.23;2.13;;;;;;;;;;5030613;28;20498;-84
2022/09/22 12:34:19;;;;;;;8.90;1.52;;;;;;;;;;5038597;28;20059;-84
2022/09/22 12:36:47;;;;;;;6.18;2.22;;;;;;;;;;5027438;28;20360;-84
2022/09/22 12:39:16;;;;;;;6.40;1.98;;;;;;;;;;5011852;28;20037;-85
2022/09/22 12:41:57;;;;;;;6.72;1.67;;;;;;;;;;5023873;28;20033;-84
2022/09/22 12:44:25;;;;;;;7.45;2.17;;;;;;;;;;5026749;28;20045;-83
2022/09/22 12:46:53;;;;;;;4.25;1.50;;;;;;;;;;5012190;28;20559;-84
2022/09/22 12:49:23;;;;;;;7.00;1.73;;;;;;;;;;5024786;28;20560;-85
2022/09/22 12:51:50;;;;;;;6.20;2.13;;;;;;;;;;5019739;28;20034;-84
2022/09/22 12:54:22;;;;;;;6.13;1.92;;;;;;;;;;5021990;28;20034;-85
2022/09/22 12:56:47;;;;;;;;;;;;;;;;;;5029820;28;20057;-84
2022/09/22 12:59:32;;;;;;;5.90;1.63;;;;;;;;;;5024691;28;20369;-84
2022/09/22 13:02:14;;;;;;;12.32;2.08;;;;;;;;;;5022020;28;20091;-84
2022/09/22 13:04:40;;;;;;;;;;;;;;;;;;5027879;28;20528;-84
2022/09/22 13:07:25;;;;;;;8.35;1.70;;;;;;;;;;5015187;28;20376;-83
2022/09/22 13:10:11;;;;;;;6.55;1.70;;;;;;;;;;5020149;28;20045;-84
2022/09/22 13:12:37;;;;;;;9.98;2.25;;;;;;;;;;5034776;28;20398;-84
2022/09/22 13:15:06;;;;;;;6.18;1.83;;;;;;;;;;5017847;28;20042;-84
2022/09/22 13:17:33;;;;;;;6.32;1.90;;;;;;;;;;5027344;28;20037;-85
2022/09/22 13:19:59;;;;;;;10.00;1.85;;;;;;;;;;5024968;28;20033;-85
2022/09/22 13:22:25;;;;;;;9.57;2.45;;;;;;;;;;5024987;28;20677;-84
2022/09/22 13:24:51;;;;;;;4.75;1.50;;;;;;;;;;5024576;28;20030;-84
2022/09/22 13:27:17;;;;;;;7.47;1.92;;;;;;;;;;5029708;28;20034;-84
2022/09/22 13:29:56;;;;;;;6.55;1.45;;;;;;;;;;5022456;28;20048;-84
2022/09/22 13:32:25;;;;;;;6.90;1.98;;;;;;;;;;5027522;28;20706;-84
2022/09/22 13:34:51;;;;;;;9.63;1.98;;;;;;;;;;5023217;28;20068;-84
2022/09/22 13:37:20;;;;;;;7.72;1.90;;;;;;;;;;5026798;28;20505;-84
2022/09/22 13:39:48;;;;;;;5.72;1.65;;;;;;;;;;5029593;28;20042;-84
2022/09/22 13:42:21;;;;;;;5.68;1.70;;;;;;;;;;5027460;28;20524;-84
2022/09/22 13:44:51;;;;;;;11.98;1.85;;;;;;;;;;5022045;28;20030;-84
2022/09/22 13:47:19;;;;;;;8.82;1.45;;;;;;;;;;5025508;28;20152;-84
2022/09/22 13:49:48;;;;;;;8.48;1.73;;;;;;;;;;5022957;28;20037;-84
2022/09/22 13:52:17;;;;;;;8.00;2.05;;;;;;;;;;5022866;28;20042;-84
2022/09/22 13:54:45;;;;;;;4.90;1.42;;;;;;;;;;5028359;28;20039;-84
2022/09/22 13:57:30;;;;;;;4.88;1.73;;;;;;;;;;5026861;28;20037;-84
2022/09/22 13:59:57;;;;;;;8.05;1.63;;;;;;;;;;5026886;28;20033;-85
2022/09/22 14:02:23;;;;;;;5.90;1.50;;;;;;;;;;5020748;28;20030;-85
2022/09/22 14:04:51;;;;;;;4.05;1.52;;;;;;;;;;5026442;28;20037;-85
2022/09/22 14:07:18;;;;;;;6.35;1.40;;;;;;;;;;5024812;28;20064;-85
2022/09/22 14:09:44;;;;;;;6.00;1.30;;;;;;;;;;5024499;28;20035;-85
2022/09/22 14:12:10;;;;;;;7.90;1.77;;;;;;;;;;5026157;28;20483;-85
2022/09/22 14:14:38;;;;;;;7.65;1.55;;;;;;;;;;5026718;28;20076;-85
2022/09/22 14:17:07;;;;;;;7.65;1.80;;;;;;;;;;5022223;28;20121;-84
2022/09/22 14:19:35;;;;;;;7.57;1.85;;;;;;;;;;5025403;28;20038;-85
2022/09/22 14:22:05;;;;;;;5.07;1.20;;;;;;;;;;5022828;28;20079;-85
2022/09/22 14:24:32;;;;;;;6.07;1.80;;;;;;;;;;5024421;28;20073;-85
2022/09/22 14:27:05;;;;;;;8.00;1.30;;;;;;;;;;5022747;28;20033;-84
2022/09/22 14:29:34;;;;;;;5.30;1.33;;;;;;;;;;5016139;28;20037;-84
2022/09/22 14:32:09;;;;;;;4.60;1.45;;;;;;;;;;5027223;28;20033;-85
2022/09/22 14:34:36;;;;;;;6.18;1.25;;;;;;;;;;5020790;28;20045;-84
2022/09/22 14:37:15;;;;;;;7.75;1.55;;;;;;;;;;5020101;28;20042;-84
2022/09/22 14:39:41;;;;;;;8.50;1.40;;;;;;;;;;5027917;28;20191;-85
2022/09/22 14:42:10;;;;;;;6.68;1.58;;;;;;;;;;5015963;28;20044;-84
2022/09/22 14:44:42;;;;;;;6.13;1.27;;;;;;;;;;5014452;28;20014;-84
2022/09/22 14:47:10;;;;;;;7.40;1.42;;;;;;;;;;5022384;28;20041;-84
2022/09/22 14:49:39;;;;;;;7.45;1.30;;;;;;;;;;5021405;28;20029;-84
2022/09/22 14:52:06;;;;;;;4.22;1.27;;;;;;;;;;5030536;28;20069;-83
2022/09/22 14:54:34;;;;;;;10.63;1.60;;;;;;;;;;5025174;28;20084;-84
2022/09/22 14:57:02;;;;;;;7.28;1.25;;;;;;;;;;5024979;28;20179;-84
2022/09/22 15:02:32;;;;;;;5.88;1.38;;;;;;;;;;5034299;28;20490;-84
2022/09/22 15:05:02;;;;;;;6.30;1.17;;;;;;;;;;5017466;28;20030;-85
2022/09/22 15:07:29;;;;;;;9.70;1.20;;;;;;;;;;5027415;28;20052;-84
2022/09/22 15:09:57;;;;;;;5.60;1.58;;;;;;;;;;5027837;28;20030;-84
2022/09/22 15:12:32;;;;;;;5.68;1.30;;;;;;;;;;5019141;28;20083;-84